createdAt,value
2022-09-09T00:01:45.297Z,59.95
2022-09-09T00:04:30.610Z,60.90
2022-09-09T00:07:25.301Z,60.68
2022-09-09T00:10:23.545Z,59.48
2022-09-09T00:13:10.186Z,59.30
2022-09-09T00:16:01.189Z,57.95
2022-09-09T00:18:41.419Z,56.30
2022-09-09T00:21:19.013Z,57.04
2022-09-09T00:23:51.943Z,55.84
2022-09-09T00:26:39.351Z,56.47
2022-09-09T00:29:09.645Z,56.37
2022-09-09T00:31:38.290Z,55.69
2022-09-09T00:34:18.269Z,57.30
2022-09-09T00:36:49.392Z,57.38
2022-09-09T00:39:40.492Z,59.00
2022-09-09T00:42:13.922Z,58.70
2022-09-09T00:44:57.566Z,58.85
2022-09-09T00:47:57.946Z,59.90
2022-09-09T00:50:35.293Z,59.99
2022-09-09T00:53:23.338Z,61.34
2022-09-09T00:56:02.677Z,61.49
2022-09-09T00:58:29.772Z,61.81
2022-09-09T01:01:13.047Z,62.86
2022-09-09T01:03:50.295Z,62.80
2022-09-09T01:06:30.882Z,63.65
2022-09-09T01:09:19.207Z,63.86
2022-09-09T01:12:24.374Z,64.55
2022-09-09T01:14:56.827Z,64.93
2022-09-09T01:17:40.052Z,64.58
2022-09-09T01:20:18.078Z,64.59
2022-09-09T01:23:07.404Z,64.63
2022-09-09T01:26:11.651Z,64.93
2022-09-09T01:28:39.986Z,64.15
2022-09-09T01:31:09.135Z,64.23
2022-09-09T01:33:35.986Z,64.85
2022-09-09T01:36:14.212Z,64.23
2022-09-09T01:38:41.517Z,65.76
2022-09-09T01:41:08.311Z,65.76
2022-09-09T01:43:34.975Z,66.34
2022-09-09T01:46:03.682Z,68.45
2022-09-09T01:48:32.539Z,69.32
2022-09-09T01:50:59.237Z,69.24
2022-09-09T01:53:26.092Z,69.04
2022-09-09T01:56:20.665Z,66.84
2022-09-09T01:59:33.779Z,68.52
2022-09-09T02:02:16.144Z,69.65
2022-09-09T02:04:50.127Z,70.04
2022-09-09T02:07:42.711Z,70.12
2022-09-09T02:10:22.494Z,69.44
2022-09-09T02:12:54.961Z,69.66
2022-09-09T02:15:30.243Z,69.26
2022-09-09T02:17:59.824Z,70.08
2022-09-09T02:20:30.536Z,69.89
2022-09-09T02:23:01.284Z,68.92
2022-09-09T02:25:30.868Z,68.90
2022-09-09T02:27:59.807Z,69.65
2022-09-09T02:30:29.570Z,70.23
2022-09-09T02:32:58.884Z,70.52
2022-09-09T02:35:27.227Z,70.48
2022-09-09T02:37:57.865Z,70.25
2022-09-09T02:40:24.445Z,70.38
2022-09-09T02:42:51.101Z,69.80
2022-09-09T02:45:21.819Z,70.67
2022-09-09T02:48:08.648Z,70.93
2022-09-09T02:51:11.321Z,70.90
2022-09-09T02:53:47.914Z,71.29
2022-09-09T02:56:22.108Z,71.59
2022-09-09T02:58:50.502Z,71.77
2022-09-09T03:01:17.260Z,72.21
2022-09-09T03:03:45.207Z,72.19
2022-09-09T03:06:12.934Z,71.67
2022-09-09T03:08:39.515Z,70.59
2022-09-09T03:11:06.106Z,67.62
2022-09-09T03:13:32.930Z,66.90
2022-09-09T03:15:59.912Z,67.24
2022-09-09T03:18:26.678Z,66.98
2022-09-09T03:20:55.275Z,67.39
2022-09-09T03:23:22.745Z,68.32
2022-09-09T03:25:50.665Z,68.18
2022-09-09T03:28:17.435Z,67.04
2022-09-09T03:30:44.090Z,65.33
2022-09-09T03:33:12.102Z,65.49
2022-09-09T03:35:38.677Z,65.56
2022-09-09T03:38:05.237Z,65.85
2022-09-09T03:40:32.183Z,67.00
2022-09-09T03:42:58.709Z,66.56
2022-09-09T03:45:25.613Z,66.67
2022-09-09T03:47:52.179Z,68.09
2022-09-09T03:50:19.529Z,69.32
2022-09-09T03:52:47.095Z,69.63
2022-09-09T03:55:13.707Z,70.27
2022-09-09T03:57:40.309Z,70.55
2022-09-09T04:00:08.959Z,70.90
2022-09-09T04:02:35.770Z,71.22
2022-09-09T04:05:03.310Z,71.38
2022-09-09T04:07:30.211Z,71.44
2022-09-09T04:09:56.857Z,71.99
2022-09-09T04:12:23.528Z,72.40
2022-09-09T04:14:50.241Z,71.86
2022-09-09T04:17:18.384Z,72.21
2022-09-09T04:19:45.069Z,72.49
2022-09-09T04:22:12.055Z,72.68
2022-09-09T04:24:38.576Z,72.01
2022-09-09T04:27:05.855Z,72.71
2022-09-09T04:29:32.420Z,72.85
2022-09-09T04:31:59.043Z,72.00
2022-09-09T04:34:26.174Z,71.93
2022-09-09T04:36:55.773Z,72.53
2022-09-09T04:39:22.632Z,72.41
2022-09-09T04:41:50.971Z,72.08
2022-09-09T04:44:17.551Z,72.88
2022-09-09T04:46:44.121Z,72.15
2022-09-09T04:49:14.905Z,72.43
2022-09-09T04:51:41.890Z,71.82
2022-09-09T04:54:08.554Z,71.99
2022-09-09T04:56:35.271Z,71.73
2022-09-09T04:59:03.948Z,71.95
2022-09-09T05:01:30.836Z,72.73
2022-09-09T05:03:57.481Z,72.85
2022-09-09T05:06:24.848Z,72.41
2022-09-09T05:08:52.053Z,72.81
2022-09-09T05:11:22.931Z,72.97
2022-09-09T05:13:51.338Z,72.11
2022-09-09T05:16:18.918Z,71.83
2022-09-09T05:18:47.056Z,71.42
2022-09-09T05:21:15.405Z,71.49
2022-09-09T05:23:42.175Z,70.54
2022-09-09T05:26:17.028Z,69.59
2022-09-09T05:28:45.916Z,69.94
2022-09-09T05:31:14.138Z,70.51
2022-09-09T05:33:46.953Z,70.55
2022-09-09T05:36:16.073Z,70.37
2022-09-09T05:38:43.703Z,70.37
2022-09-09T05:41:12.300Z,70.50
2022-09-09T05:43:39.853Z,69.38
2022-09-09T05:46:11.533Z,68.35
2022-09-09T05:48:40.206Z,68.86
2022-09-09T05:51:10.214Z,69.98
2022-09-09T05:53:36.913Z,70.14
2022-09-09T05:56:13.523Z,69.95
2022-09-09T05:58:40.561Z,70.06
2022-09-09T06:01:09.505Z,70.52
2022-09-09T06:03:37.692Z,70.74
2022-09-09T06:06:07.380Z,70.56
2022-09-09T06:08:38.109Z,71.09
2022-09-09T06:11:06.939Z,71.28
2022-09-09T06:13:33.813Z,69.92
2022-09-09T06:16:00.834Z,69.56
2022-09-09T06:18:27.787Z,68.37
2022-09-09T06:21:06.219Z,67.84
2022-09-09T06:23:33.909Z,68.93
2022-09-09T06:26:09.057Z,68.49
2022-09-09T06:28:36.652Z,68.20
2022-09-09T06:31:14.288Z,67.59
2022-09-09T06:33:42.604Z,67.33
2022-09-09T06:36:13.629Z,65.35
2022-09-09T06:38:41.469Z,64.26
2022-09-09T06:41:10.433Z,64.08
2022-09-09T06:43:37.482Z,65.40
2022-09-09T06:46:09.357Z,66.68
2022-09-09T06:48:37.531Z,65.59
2022-09-09T06:51:22.181Z,64.14
2022-09-09T06:53:54.682Z,63.51
2022-09-09T06:56:29.659Z,63.35
2022-09-09T06:58:59.377Z,63.23
2022-09-09T07:01:29.222Z,62.26
2022-09-09T07:03:59.844Z,61.77
2022-09-09T07:06:29.516Z,61.05
2022-09-09T07:08:58.799Z,60.78
2022-09-09T07:11:29.092Z,60.88
2022-09-09T07:13:56.471Z,60.90
2022-09-09T07:16:25.799Z,61.72
2022-09-09T07:18:53.903Z,62.29
2022-09-09T07:21:22.197Z,61.84
2022-09-09T07:23:49.144Z,60.31
2022-09-09T07:26:18.246Z,60.94
2022-09-09T07:28:46.968Z,61.74
2022-09-09T07:31:26.217Z,62.40
2022-09-09T07:33:53.731Z,62.79
2022-09-09T07:36:31.293Z,61.54
2022-09-09T07:39:02.958Z,60.15
2022-09-09T07:41:35.208Z,61.56
2022-09-09T07:44:09.727Z,61.58
2022-09-09T07:46:37.085Z,61.08
2022-09-09T07:49:04.181Z,60.58
2022-09-09T07:51:43.009Z,60.42
2022-09-09T07:54:14.652Z,59.58
2022-09-09T07:56:41.994Z,60.07
2022-09-09T07:59:10.387Z,59.16
2022-09-09T08:01:40.537Z,57.86
2022-09-09T08:04:29.060Z,58.18
2022-09-09T08:07:00.620Z,53.31
2022-09-09T08:09:33.392Z,50.61
2022-09-09T08:12:00.953Z,50.64
2022-09-09T08:14:28.684Z,52.37
2022-09-09T08:16:55.656Z,50.95
2022-09-09T08:19:22.306Z,49.89
2022-09-09T08:21:50.009Z,50.73
2022-09-09T08:24:17.313Z,50.03
2022-09-09T08:26:47.497Z,49.84
2022-09-09T08:29:15.020Z,48.76
2022-09-09T08:31:48.260Z,49.89
2022-09-09T08:34:16.050Z,49.71
2022-09-09T08:36:45.386Z,48.30
2022-09-09T08:39:14.308Z,46.48
2022-09-09T08:41:50.029Z,47.35
2022-09-09T08:44:32.578Z,46.34
2022-09-09T08:47:05.165Z,45.72
2022-09-09T08:49:58.557Z,47.87
2022-09-09T08:52:49.861Z,47.98
2022-09-09T08:55:30.285Z,45.93
2022-09-09T08:58:02.078Z,46.00
2022-09-09T09:00:42.798Z,49.74
2022-09-09T09:03:34.526Z,50.07
2022-09-09T09:06:10.117Z,50.77
2022-09-09T09:08:39.876Z,50.50
2022-09-09T09:11:07.686Z,51.18
2022-09-09T09:13:46.341Z,52.66
2022-09-09T09:16:28.104Z,53.15
2022-09-09T09:18:56.124Z,52.84
2022-09-09T09:21:49.391Z,52.25
2022-09-09T09:24:21.949Z,53.00
2022-09-09T09:26:49.007Z,53.03
2022-09-09T09:29:18.739Z,52.46
2022-09-09T09:31:52.743Z,52.21
2022-09-09T09:34:19.447Z,47.79
2022-09-09T09:36:54.470Z,48.62
2022-09-09T09:42:21.649Z,47.81
2022-09-09T09:44:50.955Z,47.09
2022-09-09T09:47:27.963Z,48.89
2022-09-09T09:49:59.660Z,50.69
2022-09-09T09:52:30.821Z,47.89
2022-09-09T09:55:05.255Z,47.41
2022-09-09T09:57:35.257Z,48.45
2022-09-09T10:00:23.806Z,48.16
2022-09-09T10:02:52.946Z,47.40
2022-09-09T10:05:26.904Z,47.43
2022-09-09T10:08:12.424Z,46.54
2022-09-09T10:11:03.612Z,47.56
2022-09-09T10:13:59.827Z,48.51
2022-09-09T10:16:58.640Z,46.92
2022-09-09T10:19:37.600Z,44.87
2022-09-09T10:22:29.564Z,48.00
2022-09-09T10:25:20.434Z,47.06
2022-09-09T10:27:59.758Z,46.14
2022-09-09T10:30:44.154Z,45.32
2022-09-09T10:33:32.902Z,45.65
2022-09-09T10:36:01.152Z,46.27
2022-09-09T10:38:48.228Z,47.29
2022-09-09T10:41:24.206Z,48.13
2022-09-09T10:44:00.461Z,48.34
2022-09-09T10:46:37.217Z,46.08
2022-09-09T10:49:20.733Z,45.59
2022-09-09T10:51:52.571Z,47.00
2022-09-09T10:54:29.112Z,48.35
2022-09-09T10:57:01.448Z,46.85
2022-09-09T10:59:35.591Z,43.89
2022-09-09T11:02:05.494Z,44.58
2022-09-09T11:04:40.039Z,45.31
2022-09-09T11:07:12.395Z,43.20
2022-09-09T11:09:56.107Z,43.29
2022-09-09T11:12:25.108Z,44.63
2022-09-09T11:15:00.495Z,42.58
2022-09-09T11:17:50.400Z,41.76
2022-09-09T11:20:19.345Z,41.31
2022-09-09T11:23:08.179Z,41.03
2022-09-09T11:25:42.845Z,41.06
2022-09-09T11:28:46.067Z,37.67
2022-09-09T11:31:27.476Z,41.52
2022-09-09T11:34:20.889Z,40.27
2022-09-09T11:37:33.303Z,41.03
2022-09-09T11:40:10.867Z,39.29
2022-09-09T11:42:37.811Z,36.23
2022-09-09T11:45:20.618Z,35.77
2022-09-09T11:47:59.189Z,40.60
2022-09-09T11:50:25.918Z,39.34
2022-09-09T11:53:05.113Z,40.55
2022-09-09T11:55:34.438Z,41.23
2022-09-09T11:58:16.825Z,40.39
2022-09-09T12:00:46.348Z,34.79
2022-09-09T12:03:49.980Z,37.97
2022-09-09T12:06:26.187Z,36.34
2022-09-09T12:08:58.748Z,35.46
2022-09-09T12:11:30.164Z,38.43
2022-09-09T12:13:59.045Z,41.80
2022-09-09T12:16:38.370Z,38.00
2022-09-09T12:19:08.729Z,36.03
2022-09-09T12:21:40.415Z,35.58
2022-09-09T12:24:12.798Z,36.22
2022-09-09T12:26:48.450Z,37.98
2022-09-09T12:29:34.195Z,34.69
2022-09-09T12:32:05.081Z,34.91
2022-09-09T12:34:41.222Z,35.05
2022-09-09T12:37:13.943Z,36.02
2022-09-09T12:39:59.824Z,35.10
2022-09-09T12:42:28.171Z,36.08
2022-09-09T12:45:00.223Z,36.60
2022-09-09T12:47:42.451Z,34.93
2022-09-09T12:50:31.207Z,36.21
2022-09-09T12:53:03.009Z,36.04
2022-09-09T12:55:36.136Z,38.99
2022-09-09T12:58:07.646Z,36.78
2022-09-09T13:00:38.213Z,36.59
2022-09-09T13:03:18.373Z,42.39
2022-09-09T13:05:48.424Z,39.75
2022-09-09T13:08:21.642Z,41.29
2022-09-09T13:11:02.496Z,37.81
2022-09-09T13:13:36.235Z,39.15
2022-09-09T13:16:05.669Z,38.59
2022-09-09T13:18:40.417Z,40.23
2022-09-09T13:21:08.740Z,39.55
2022-09-09T13:23:40.322Z,38.15
2022-09-09T13:26:22.850Z,36.53
2022-09-09T13:28:50.563Z,38.24
2022-09-09T13:31:36.999Z,38.27
2022-09-09T13:34:15.232Z,41.70
2022-09-09T13:36:42.813Z,42.85
2022-09-09T13:39:20.028Z,44.39
2022-09-09T13:41:49.538Z,41.65
2022-09-09T13:44:24.662Z,43.73
2022-09-09T13:47:33.798Z,44.82
2022-09-09T13:50:27.384Z,44.38
2022-09-09T13:52:57.134Z,45.65
2022-09-09T13:55:24.994Z,41.39
2022-09-09T13:58:01.504Z,41.60
2022-09-09T14:00:31.697Z,41.94
2022-09-09T14:02:58.838Z,43.53
2022-09-09T14:05:26.199Z,43.75
2022-09-09T14:07:53.428Z,43.04
2022-09-09T14:10:21.108Z,43.07
2022-09-09T14:12:47.902Z,43.95
2022-09-09T14:15:15.562Z,43.84
2022-09-09T14:17:42.625Z,44.66
2022-09-09T14:20:12.829Z,44.86
2022-09-09T14:22:40.355Z,45.67
2022-09-09T14:27:52.495Z,46.78
2022-09-09T14:30:19.085Z,47.55
2022-09-09T14:32:45.875Z,47.22
2022-09-09T14:35:13.559Z,46.78
2022-09-09T14:37:40.475Z,46.81
2022-09-09T14:40:08.515Z,47.71
2022-09-09T14:42:36.681Z,47.43
2022-09-09T14:45:03.740Z,48.24
2022-09-09T14:47:31.566Z,48.00
2022-09-09T14:49:59.774Z,48.92
2022-09-09T14:52:29.936Z,49.66
2022-09-09T14:54:56.581Z,49.48
2022-09-09T14:57:23.611Z,50.07
2022-09-09T14:59:51.366Z,49.87
2022-09-09T15:02:18.108Z,50.37
2022-09-09T15:04:46.584Z,49.50
2022-09-09T15:07:13.667Z,50.03
2022-09-09T15:09:40.319Z,50.56
2022-09-09T15:12:08.448Z,50.58
2022-09-09T15:14:35.700Z,50.32
2022-09-09T15:17:02.356Z,50.98
2022-09-09T15:19:29.108Z,51.82
2022-09-09T15:24:48.358Z,55.23
2022-09-09T15:27:15.753Z,56.62
2022-09-09T15:29:43.175Z,57.36
2022-09-09T15:32:09.709Z,57.24
2022-09-09T15:34:36.490Z,56.72
2022-09-09T15:37:03.103Z,56.12
2022-09-09T15:39:29.814Z,55.55
2022-09-09T15:41:59.199Z,53.62
2022-09-09T15:44:26.603Z,54.11
2022-09-09T15:46:55.386Z,52.49
2022-09-09T15:49:26.337Z,52.80
2022-09-09T15:51:58.508Z,52.30
2022-09-09T15:54:27.119Z,51.45
2022-09-09T15:56:58.767Z,50.58
2022-09-09T15:59:28.861Z,51.47
2022-09-09T16:01:57.686Z,52.73
2022-09-09T16:04:25.628Z,52.21
2022-09-09T16:06:59.597Z,52.71
2022-09-09T16:09:27.774Z,53.15
2022-09-09T16:11:57.663Z,52.25
2022-09-09T16:14:25.979Z,51.82
2022-09-09T16:16:54.208Z,51.10
2022-09-09T16:19:21.450Z,51.80
2022-09-09T16:21:50.525Z,52.21
2022-09-09T16:24:19.796Z,53.22
2022-09-09T16:26:49.429Z,53.65
2022-09-09T16:29:18.312Z,56.06
2022-09-09T16:31:47.813Z,56.76
2022-09-09T16:34:16.405Z,56.11
2022-09-09T16:36:44.985Z,54.63
2022-09-09T16:39:19.461Z,55.92
2022-09-09T16:41:48.503Z,56.20
2022-09-09T16:44:18.034Z,55.70
2022-09-09T16:46:45.438Z,56.17
2022-09-09T16:49:14.296Z,55.99
2022-09-09T16:51:49.023Z,57.44
2022-09-09T16:54:18.306Z,57.00
2022-09-09T16:56:48.503Z,58.25
2022-09-09T16:59:18.959Z,58.03
2022-09-09T17:01:48.449Z,56.86
2022-09-09T17:04:21.716Z,57.29
2022-09-09T17:06:50.730Z,55.52
2022-09-09T17:09:18.939Z,55.32
2022-09-09T17:11:46.608Z,54.35
2022-09-09T17:14:16.626Z,54.61
2022-09-09T17:16:44.568Z,57.09
2022-09-09T17:19:12.412Z,58.77
2022-09-09T17:21:54.563Z,57.60
2022-09-09T17:24:27.604Z,57.21
2022-09-09T17:26:55.525Z,55.51
2022-09-09T17:29:22.650Z,54.86
2022-09-09T17:31:50.494Z,55.93
2022-09-09T17:34:17.154Z,57.47
2022-09-09T17:36:43.781Z,57.01
2022-09-09T17:39:10.513Z,55.95
2022-09-09T17:41:39.038Z,55.06
2022-09-09T17:46:36.893Z,56.07
2022-09-09T17:49:09.867Z,55.21
2022-09-09T17:51:37.241Z,55.02
2022-09-09T17:54:10.322Z,54.52
2022-09-09T17:56:38.307Z,56.52
2022-09-09T17:59:07.839Z,57.20
2022-09-09T18:01:39.673Z,55.96
2022-09-09T18:04:07.224Z,59.39
2022-09-09T18:06:36.504Z,59.92
2022-09-09T18:09:06.792Z,60.56
2022-09-09T18:11:42.482Z,61.22
2022-09-09T18:14:12.830Z,61.33
2022-09-09T18:16:40.889Z,60.19
2022-09-09T18:19:13.813Z,59.11
2022-09-09T18:21:42.232Z,59.86
2022-09-09T18:24:09.180Z,60.89
2022-09-09T18:26:36.298Z,60.87
2022-09-09T18:29:07.702Z,61.77
2022-09-09T18:31:35.037Z,62.74
2022-09-09T18:34:03.746Z,62.94
2022-09-09T18:36:33.738Z,63.01
2022-09-09T18:39:03.456Z,61.37
2022-09-09T18:41:43.413Z,61.39
2022-09-09T18:44:19.723Z,60.89
2022-09-09T18:46:47.971Z,61.41
2022-09-09T18:49:15.413Z,59.81
2022-09-09T18:51:44.651Z,60.57
2022-09-09T18:54:37.685Z,60.82
2022-09-09T18:57:05.759Z,59.95
2022-09-09T18:59:32.441Z,59.32
2022-09-09T19:01:59.294Z,59.06
2022-09-09T19:04:27.659Z,59.53
2022-09-09T19:06:59.152Z,59.71
2022-09-09T19:09:32.556Z,59.70
2022-09-09T19:12:00.762Z,59.04
2022-09-09T19:14:28.176Z,58.47
2022-09-09T19:16:55.498Z,58.73
2022-09-09T19:19:25.453Z,58.79
2022-09-09T19:21:52.161Z,58.63
2022-09-09T19:24:24.927Z,58.84
2022-09-09T19:26:54.270Z,58.20
2022-09-09T19:29:23.827Z,58.92
2022-09-09T19:32:29.363Z,58.46
2022-09-09T19:34:38.439Z,58.71
2022-09-09T19:37:05.717Z,58.88
2022-09-09T19:39:34.625Z,58.97
2022-09-09T19:42:01.865Z,58.38
2022-09-09T19:44:28.649Z,58.27
2022-09-09T19:46:55.686Z,59.03
2022-09-09T19:49:22.468Z,57.93
2022-09-09T19:51:49.192Z,57.88
2022-09-09T19:54:16.179Z,57.37
2022-09-09T19:56:44.630Z,57.88
2022-09-09T19:59:12.718Z,56.81
2022-09-09T20:01:44.586Z,57.11
2022-09-09T20:04:12.074Z,57.75
2022-09-09T20:06:40.888Z,58.02
2022-09-09T20:09:10.776Z,57.73
2022-09-09T20:11:38.466Z,57.10
2022-09-09T20:14:05.462Z,58.04
2022-09-09T20:16:33.499Z,58.94
2022-09-09T20:19:03.761Z,58.18
2022-09-09T20:21:35.911Z,57.82
2022-09-09T20:24:06.031Z,58.59
2022-09-09T20:26:35.193Z,58.51
2022-09-09T20:29:05.606Z,58.51
2022-09-09T20:31:40.475Z,57.80
2022-09-09T20:34:15.417Z,58.80
2022-09-09T20:36:44.421Z,59.53
2022-09-09T20:39:15.092Z,59.75
2022-09-09T20:41:45.445Z,59.19
2022-09-09T20:44:19.325Z,59.72
2022-09-09T20:46:50.632Z,60.34
2022-09-09T20:49:19.501Z,60.48
2022-09-09T20:51:47.959Z,59.53
2022-09-09T20:54:23.567Z,60.16
2022-09-09T20:56:51.862Z,59.61
2022-09-09T20:59:21.855Z,59.35
2022-09-09T21:01:49.287Z,59.28
2022-09-09T21:04:18.559Z,59.44
2022-09-09T21:06:45.988Z,59.89
2022-09-09T21:09:14.172Z,58.93
2022-09-09T21:11:41.990Z,59.06
2022-09-09T21:14:09.058Z,60.42
2022-09-09T21:16:35.747Z,58.99
2022-09-09T21:19:02.562Z,58.31
2022-09-09T21:21:29.323Z,58.42
2022-09-09T21:23:58.370Z,58.95
2022-09-09T21:26:25.662Z,57.16
2022-09-09T21:28:53.614Z,57.01
2022-09-09T21:31:26.993Z,56.00
2022-09-09T21:33:54.100Z,55.61
2022-09-09T21:36:21.053Z,57.72
2022-09-09T21:38:47.672Z,55.57
2022-09-09T21:41:15.806Z,55.49
2022-09-09T21:43:44.386Z,54.12
2022-09-09T21:46:15.075Z,55.52
2022-09-09T21:48:41.771Z,52.47
2022-09-09T21:51:12.286Z,55.23
2022-09-09T21:53:41.853Z,53.96
2022-09-09T21:56:13.873Z,54.08
2022-09-09T21:58:43.375Z,54.21
2022-09-09T22:01:12.686Z,54.75
2022-09-09T22:03:39.904Z,54.43
2022-09-09T22:06:08.550Z,55.90
2022-09-09T22:08:36.393Z,54.82
2022-09-09T22:11:08.909Z,52.96
2022-09-09T22:13:37.038Z,55.81
2022-09-09T22:16:05.679Z,55.71
2022-09-09T22:18:32.364Z,52.91
2022-09-09T22:21:00.118Z,53.86
2022-09-09T22:23:27.139Z,54.34
2022-09-09T22:25:55.697Z,55.98
2022-09-09T22:28:22.274Z,56.61
2022-09-09T22:30:48.983Z,56.10
2022-09-09T22:33:15.580Z,55.51
2022-09-09T22:35:43.078Z,54.42
2022-09-09T22:38:10.789Z,56.82
2022-09-09T22:40:38.648Z,57.12
2022-09-09T22:43:16.702Z,57.98
2022-09-09T22:45:44.324Z,55.04
2022-09-09T22:48:11.976Z,55.11
2022-09-09T22:50:42.219Z,58.08
2022-09-09T22:53:13.582Z,57.21
2022-09-09T22:55:40.541Z,58.04
2022-09-09T22:58:07.425Z,59.08
2022-09-09T23:00:34.135Z,57.66
2022-09-09T23:03:01.942Z,58.31
2022-09-09T23:05:29.175Z,56.77
2022-09-09T23:07:58.469Z,58.09
2022-09-09T23:10:25.596Z,59.37
2022-09-09T23:12:53.494Z,58.26
2022-09-09T23:15:22.129Z,58.89
2022-09-09T23:17:49.893Z,58.35
2022-09-09T23:20:17.040Z,60.65
2022-09-09T23:22:44.190Z,58.74
2022-09-09T23:25:11.131Z,58.80
2022-09-09T23:27:38.676Z,57.58
2022-09-09T23:30:07.165Z,59.25
2022-09-09T23:32:33.891Z,58.03
2022-09-09T23:35:00.844Z,58.40
2022-09-09T23:37:27.838Z,59.11
2022-09-09T23:39:54.461Z,59.46
2022-09-09T23:42:21.117Z,57.53
2022-09-09T23:44:47.729Z,56.49
2022-09-09T23:47:14.681Z,58.36
2022-09-09T23:49:41.322Z,59.57
2022-09-09T23:52:09.067Z,59.92
2022-09-09T23:54:35.950Z,59.26
2022-09-09T23:57:03.672Z,59.97
2022-09-09T23:59:31.610Z,60.54
